Time;durP1;ratioP1;P1;durP2;ratioP2;P2;SDS_P1;SDS_P2;PMS_P1;PMS_P2;Temp;Humidity;BMP_temperature;BMP_pressure;BME280_temperature;BME280_humidity;BME280_pressure;Samples;Min_cycle;Max_cycle;Signal;HPM_P1;HPM_P2
2022/04/09 00:02:08;;;;;;;8.70;1.60;;;;;;;5.63;100.00;100377.78;5113696;28;20408;-28
2022/04/09 00:04:36;;;;;;;12.45;1.70;;;;;;;5.62;100.00;100385.25;5113025;28;20148;-27
2022/04/09 00:07:05;;;;;;;7.88;1.45;;;;;;;5.63;100.00;100391.63;5114064;28;20052;-27
2022/04/09 00:09:34;;;;;;;10.75;1.63;;;;;;;5.66;100.00;100396.63;5114487;28;20051;-30
2022/04/09 00:12:02;;;;;;;13.82;1.90;;;;;;;5.70;100.00;100395.78;5113174;28;20032;-30
2022/04/09 00:14:30;;;;;;;11.27;1.80;;;;;;;5.72;100.00;100388.03;5113539;28;20055;-30
2022/04/09 00:16:58;;;;;;;15.38;2.25;;;;;;;5.73;100.00;100400.78;5113788;28;20052;-26
2022/04/09 00:19:26;;;;;;;7.40;1.13;;;;;;;5.71;100.00;100403.00;5114190;28;20045;-30
2022/04/09 00:21:54;;;;;;;7.00;1.00;;;;;;;5.63;100.00;100399.94;5113493;28;20051;-29
2022/04/09 00:24:23;;;;;;;13.38;1.80;;;;;;;5.61;100.00;100402.16;5113579;28;20118;-28
2022/04/09 00:26:51;;;;;;;6.00;1.17;;;;;;;5.60;100.00;100398.56;5113765;28;20081;-26
2022/04/09 00:29:18;;;;;;;9.48;1.33;;;;;;;5.60;100.00;100394.94;5111787;28;20382;-31
2022/04/09 00:31:46;;;;;;;6.65;0.90;;;;;;;5.63;100.00;100400.75;5113708;27;20047;-26
2022/04/09 00:34:14;;;;;;;10.88;1.77;;;;;;;5.67;100.00;100410.19;5113784;28;20048;-29
2022/04/09 00:36:42;;;;;;;9.73;1.52;;;;;;;5.70;100.00;100412.41;5113298;28;20498;-27
2022/04/09 00:39:10;;;;;;;13.38;1.80;;;;;;;5.74;100.00;100421.81;5111710;28;20431;-33
2022/04/09 00:41:41;;;;;;;11.30;1.67;;;;;;;5.75;100.00;100425.41;5113559;28;20583;-28
2022/04/09 00:44:16;;;;;;;11.63;1.75;;;;;;;5.75;100.00;100436.50;5111771;28;20079;-24
2022/04/09 00:46:44;;;;;;;12.20;1.80;;;;;;;5.79;100.00;100432.06;5111870;28;20570;-27
2022/04/09 00:49:13;;;;;;;11.10;1.70;;;;;;;5.80;100.00;100434.53;5112969;28;20096;-29
2022/04/09 00:51:42;;;;;;;8.73;1.45;;;;;;;5.82;100.00;100446.16;5111887;28;20040;-27
2022/04/09 00:54:13;;;;;;;10.82;1.60;;;;;;;5.81;100.00;100447.25;5113165;28;20078;-27
2022/04/09 00:56:43;;;;;;;9.93;1.63;;;;;;;5.81;100.00;100449.19;5112645;28;20382;-27
2022/04/09 00:59:11;;;;;;;12.45;1.60;;;;;;;5.81;100.00;100449.19;5100393;28;20512;-25
2022/04/09 01:01:41;;;;;;;11.23;1.65;;;;;;;5.83;100.00;100447.81;5109962;28;20039;-26
2022/04/09 01:04:11;;;;;;;10.48;1.73;;;;;;;5.82;100.00;100453.63;5111433;28;20046;-29
2022/04/09 01:06:39;;;;;;;11.23;1.83;;;;;;;5.83;100.00;100455.28;5112710;28;20048;-26
2022/04/09 01:09:08;;;;;;;10.30;1.73;;;;;;;5.89;100.00;100468.06;5091429;28;20174;-27
2022/04/09 01:11:40;;;;;;;7.40;1.20;;;;;;;5.88;100.00;100458.94;5109980;28;20491;-31
2022/04/09 01:14:11;;;;;;;7.55;1.20;;;;;;;5.83;100.00;100474.66;5110551;28;20047;-29
2022/04/09 01:16:40;;;;;;;9.43;1.40;;;;;;;5.79;100.00;100476.34;5112997;28;20476;-27
2022/04/09 01:19:08;;;;;;;11.27;1.98;;;;;;;5.76;100.00;100480.50;5112063;28;20130;-28
2022/04/09 01:21:40;;;;;;;9.98;1.55;;;;;;;5.76;100.00;100483.28;5111483;28;20051;-30
2022/04/09 01:24:10;;;;;;;10.65;1.80;;;;;;;5.77;100.00;100484.94;5109613;28;20138;-28
2022/04/09 01:26:46;;;;;;;9.75;1.58;;;;;;;5.77;100.00;100489.66;5111585;28;20047;-25
2022/04/09 01:29:30;;;;;;;8.25;1.63;;;;;;;5.78;100.00;100488.53;5110987;28;20040;-29
2022/04/09 01:31:57;;;;;;;11.57;1.48;;;;;;;5.81;100.00;100497.09;5112486;28;20054;-24
2022/04/09 01:34:25;;;;;;;12.45;1.80;;;;;;;5.87;100.00;100501.53;5111009;28;20058;-26
2022/04/09 01:36:53;;;;;;;9.75;1.45;;;;;;;5.85;100.00;100500.16;5111224;28;20047;-27
2022/04/09 01:39:22;;;;;;;13.32;1.60;;;;;;;5.76;100.00;100499.88;5110213;28;20516;-28
2022/04/09 01:41:50;;;;;;;9.48;1.50;;;;;;;5.72;100.00;100504.31;5110863;28;20077;-26
2022/04/09 01:44:19;;;;;;;12.02;1.88;;;;;;;5.70;100.00;100511.22;5110893;28;20078;-25
2022/04/09 01:46:47;;;;;;;7.30;1.40;;;;;;;5.72;100.00;100507.06;5110671;28;20089;-29
2022/04/09 01:49:15;;;;;;;9.05;1.48;;;;;;;5.75;100.00;100508.47;5110728;28;20071;-26
2022/04/09 01:51:43;;;;;;;10.25;1.70;;;;;;;5.78;100.00;100517.06;5112628;28;20255;-26
2022/04/09 01:54:11;;;;;;;14.07;1.63;;;;;;;5.81;100.00;100522.00;5110238;28;20075;-31
2022/04/09 01:56:41;;;;;;;13.13;1.60;;;;;;;5.84;100.00;100512.31;5109817;28;20131;-25
2022/04/09 01:59:09;;;;;;;12.15;1.63;;;;;;;5.87;100.00;100531.16;5110812;28;20146;-27
2022/04/09 02:01:37;;;;;;;12.48;1.95;;;;;;;5.93;100.00;100543.94;5110303;28;20128;-28
2022/04/09 02:04:05;;;;;;;15.40;1.80;;;;;;;5.92;100.00;100553.34;5111635;28;20116;-31
2022/04/09 02:06:33;;;;;;;11.50;1.52;;;;;;;5.84;100.00;100559.41;5111396;28;20486;-23
2022/04/09 02:09:01;;;;;;;10.52;1.33;;;;;;;5.66;100.00;100543.31;5110233;28;20043;-29
2022/04/09 02:11:31;;;;;;;8.13;1.15;;;;;;;5.50;100.00;100556.31;5110466;28;20036;-27
2022/04/09 02:14:00;;;;;;;11.55;1.52;;;;;;;5.39;100.00;100549.94;5109889;28;20434;-25
2022/04/09 02:16:28;;;;;;;11.00;1.63;;;;;;;5.35;100.00;100548.81;5110696;28;20066;-29
2022/04/09 02:18:56;;;;;;;12.30;1.80;;;;;;;5.36;100.00;100552.41;5110067;28;20040;-28
2022/04/09 02:21:24;;;;;;;14.68;1.98;;;;;;;5.37;100.00;100559.59;5110041;28;20047;-27
2022/04/09 02:23:52;;;;;;;8.77;1.75;;;;;;;5.41;100.00;100564.28;5111184;28;20442;-28
2022/04/09 02:26:20;;;;;;;13.13;1.92;;;;;;;5.44;100.00;100568.47;5111691;28;20047;-24
2022/04/09 02:28:49;;;;;;;9.32;1.63;;;;;;;5.45;100.00;100564.59;5109838;28;20052;-29
2022/04/09 02:31:22;;;;;;;13.32;1.90;;;;;;;5.45;100.00;100570.13;5110025;28;20516;-27
2022/04/09 02:33:51;;;;;;;14.40;1.88;;;;;;;5.40;100.00;100570.94;5110161;28;20174;-27
2022/04/09 02:36:19;;;;;;;9.60;1.55;;;;;;;5.36;100.00;100578.13;5109329;28;20405;-28
2022/04/09 02:38:47;;;;;;;9.65;1.85;;;;;;;5.34;100.00;100574.81;5109594;28;20048;-27
2022/04/09 02:41:16;;;;;;;12.23;1.67;;;;;;;5.35;100.00;100586.69;5110158;28;20039;-29
2022/04/09 02:43:46;;;;;;;12.30;1.70;;;;;;;5.34;100.00;100583.09;5109450;28;20059;-31
2022/04/09 02:46:15;;;;;;;15.07;1.67;;;;;;;5.36;100.00;100591.97;5109726;28;20164;-24
2022/04/09 02:48:46;;;;;;;13.02;1.88;;;;;;;5.38;100.00;100589.75;5109525;28;20058;-29
2022/04/09 02:51:17;;;;;;;;;;;;;;;5.37;100.00;100595.56;5110187;28;20047;-31
2022/04/09 02:53:46;;;;;;;11.65;1.60;;;;;;;5.34;100.00;100594.16;5109870;28;19920;-31
2022/04/09 02:56:14;;;;;;;9.93;2.10;;;;;;;5.35;100.00;100598.59;5109045;28;20059;-30
2022/04/09 02:58:42;;;;;;;11.27;1.88;;;;;;;5.37;100.00;100601.09;5109430;28;20054;-30
2022/04/09 03:01:11;;;;;;;14.18;1.90;;;;;;;5.38;100.00;100597.22;5110846;28;20055;-28
2022/04/09 03:03:38;;;;;;;11.43;1.55;;;;;;;5.39;100.00;100604.44;5108908;28;20043;-26
2022/04/09 03:06:08;;;;;;;9.95;1.50;;;;;;;5.43;100.00;100600.00;5109364;28;20096;-30
2022/04/09 03:08:38;;;;;;;11.23;2.20;;;;;;;5.45;100.00;100626.28;5110300;28;20144;-26
2022/04/09 03:11:06;;;;;;;11.77;1.75;;;;;;;5.49;100.00;100624.66;5110423;28;20080;-28
2022/04/09 03:13:34;;;;;;;9.90;1.48;;;;;;;5.49;100.00;100632.13;5110410;28;20079;-27
2022/04/09 03:16:02;;;;;;;9.52;1.48;;;;;;;5.42;100.00;100623.22;5109404;28;20530;-28
2022/04/09 03:18:30;;;;;;;11.23;1.65;;;;;;;5.31;100.00;100627.91;5109271;28;20366;-27
2022/04/09 03:20:59;;;;;;;13.68;1.73;;;;;;;5.23;100.00;100638.66;5108987;28;20135;-29
2022/04/09 03:23:28;;;;;;;9.80;1.40;;;;;;;5.19;100.00;100644.75;5109550;28;20519;-28
2022/04/09 03:25:58;;;;;;;11.93;1.42;;;;;;;5.18;100.00;100645.84;5108950;28;20055;-26
2022/04/09 03:28:35;;;;;;;12.10;2.17;;;;;;;5.19;100.00;100639.22;5108700;28;20055;-28
2022/04/09 03:31:03;;;;;;;13.05;1.63;;;;;;;5.22;100.00;100646.09;5109007;28;20069;-28
2022/04/09 03:33:33;;;;;;;12.70;1.90;;;;;;;5.22;100.00;100648.03;5109223;28;20071;-28
2022/04/09 03:36:07;;;;;;;12.57;2.25;;;;;;;5.22;100.00;100654.41;5109346;28;20055;-29
2022/04/09 03:38:36;;;;;;;16.15;1.90;;;;;;;5.24;100.00;100652.22;5108456;28;20551;-27
2022/04/09 03:41:04;;;;;;;15.10;1.90;;;;;;;5.30;100.00;100659.44;5109461;28;20139;-31
2022/04/09 03:43:46;;;;;;;15.40;1.80;;;;;;;5.32;100.00;100667.47;5109393;28;20504;-27
2022/04/09 03:46:15;;;;;;;11.02;1.80;;;;;;;5.35;100.00;100664.16;5108710;28;20083;-30
2022/04/09 03:48:44;;;;;;;11.63;1.77;;;;;;;5.37;100.00;100676.63;5109005;28;20047;-32
2022/04/09 03:51:14;;;;;;;8.40;1.65;;;;;;;5.36;100.00;100666.66;5101887;28;20046;-26
2022/04/09 03:53:45;;;;;;;8.32;1.60;;;;;;;5.34;100.00;100676.34;5108720;28;20055;-31
2022/04/09 03:56:14;;;;;;;13.85;1.63;;;;;;;5.32;100.00;100682.13;5109008;28;20036;-27
2022/04/09 03:58:45;;;;;;;10.70;1.50;;;;;;;5.31;100.00;100668.56;5110558;28;20100;-27
2022/04/09 04:01:16;;;;;;;9.80;1.70;;;;;;;5.34;100.00;100670.81;5108267;28;20058;-28
2022/04/09 04:03:47;;;;;;;7.13;1.42;;;;;;;5.34;100.00;100676.34;5108983;28;20113;-24
2022/04/09 04:06:14;;;;;;;9.35;1.55;;;;;;;5.34;100.00;100674.41;5108616;28;20078;-28
2022/04/09 04:08:42;;;;;;;11.85;1.90;;;;;;;5.36;100.00;100676.91;5109030;28;20048;-28
2022/04/09 04:11:16;;;;;;;9.18;1.30;;;;;;;5.38;100.00;100683.00;5109022;28;20043;-28
2022/04/09 04:13:44;;;;;;;14.18;1.58;;;;;;;5.41;100.00;100693.50;5110113;28;20043;-29
2022/04/09 04:16:13;;;;;;;11.52;2.00;;;;;;;5.44;100.00;100690.22;5108510;28;20078;-27
2022/04/09 04:18:44;;;;;;;13.20;1.70;;;;;;;5.45;100.00;100698.25;5109800;28;20063;-28
2022/04/09 04:21:14;;;;;;;11.32;1.70;;;;;;;5.45;100.00;100689.94;5113241;28;20537;-26
2022/04/09 04:23:45;;;;;;;9.65;1.73;;;;;;;5.45;100.00;100697.41;5112484;28;20092;-30
2022/04/09 04:26:21;;;;;;;10.43;1.92;;;;;;;5.48;100.00;100699.63;5112846;28;20079;-28
2022/04/09 04:28:53;;;;;;;13.80;1.90;;;;;;;5.45;100.00;100698.25;5111796;28;20079;-29
2022/04/09 04:31:22;;;;;;;10.38;1.58;;;;;;;5.47;100.00;100711.81;5112392;28;20070;-29
2022/04/09 04:33:51;;;;;;;11.90;1.67;;;;;;;5.48;100.00;100710.72;5112456;28;20073;-30
2022/04/09 04:36:19;;;;;;;11.52;1.77;;;;;;;5.50;100.00;100714.03;5111598;28;20508;-29
2022/04/09 04:38:48;;;;;;;9.27;1.40;;;;;;;5.53;100.00;100722.66;5111730;28;20063;-29
2022/04/09 04:41:16;;;;;;;10.43;1.65;;;;;;;5.53;100.00;100711.56;5111536;28;20043;-30
2022/04/09 04:43:51;;;;;;;9.45;1.75;;;;;;;5.57;100.00;100716.56;5111519;28;20134;-27
2022/04/09 04:46:21;;;;;;;14.98;1.67;;;;;;;5.62;100.00;100730.41;5108924;28;20062;-28
2022/04/09 04:48:49;;;;;;;15.85;2.10;;;;;;;5.66;100.00;100724.09;5110594;28;20046;-26
2022/04/09 04:51:21;;;;;;;12.60;2.08;;;;;;;5.70;100.00;100730.75;5111399;28;20040;-28
2022/04/09 04:53:49;;;;;;;11.68;1.80;;;;;;;5.71;100.00;100739.88;5099450;28;20055;-26
2022/04/09 04:56:17;;;;;;;9.55;1.60;;;;;;;5.70;100.00;100741.00;5111306;28;20059;-25
2022/04/09 04:58:53;;;;;;;12.90;1.70;;;;;;;5.67;100.00;100739.59;5110065;28;20069;-25
2022/04/09 05:01:21;;;;;;;14.52;1.95;;;;;;;5.65;100.00;100744.56;5110053;28;20120;-26
2022/04/09 05:03:55;;;;;;;10.80;1.50;;;;;;;5.62;100.00;100742.31;5109616;28;20123;-28
2022/04/09 05:06:31;;;;;;;9.25;1.50;;;;;;;5.62;100.00;100747.03;5109919;28;20106;-29
2022/04/09 05:08:58;;;;;;;15.80;2.67;;;;;;;5.64;100.00;100753.97;5110478;28;20071;-26
2022/04/09 05:11:34;;;;;;;18.90;2.15;;;;;;;5.67;100.00;100764.50;5109860;28;20096;-23
2022/04/09 05:14:07;;;;;;;12.18;1.88;;;;;;;5.70;100.00;100771.44;5110382;28;20043;-29
2022/04/09 05:16:39;;;;;;;11.68;1.73;;;;;;;5.69;100.00;100765.06;5109717;28;20062;-30
2022/04/09 05:19:08;;;;;;;11.75;1.80;;;;;;;5.71;100.00;100768.41;5110279;28;20047;-28
2022/04/09 05:21:39;;;;;;;12.55;1.50;;;;;;;5.73;100.00;100766.19;5110567;28;20134;-34
2022/04/09 05:24:08;;;;;;;12.23;1.70;;;;;;;5.74;100.00;100787.25;5109199;28;20036;-25
2022/04/09 05:26:36;;;;;;;8.88;1.50;;;;;;;5.75;100.00;100780.63;5109948;28;20096;-31
2022/04/09 05:29:06;;;;;;;8.38;1.33;;;;;;;5.71;100.00;100790.56;5109874;28;20039;-27
2022/04/09 05:31:34;;;;;;;8.48;1.35;;;;;;;5.71;100.00;100790.56;5110497;28;20043;-27
2022/04/09 05:34:01;;;;;;;5.30;1.27;;;;;;;5.69;100.00;100794.69;5111367;28;20048;-26
2022/04/09 05:36:33;;;;;;;7.47;1.33;;;;;;;5.68;100.00;100795.78;5110112;28;20051;-25
2022/04/09 05:39:03;;;;;;;7.70;0.98;;;;;;;5.69;100.00;100803.81;5109142;28;20329;-28
2022/04/09 05:41:34;;;;;;;9.60;2.08;;;;;;;5.72;100.00;100827.38;5108518;28;20078;-27
2022/04/09 05:44:02;;;;;;;11.35;1.80;;;;;;;5.77;100.00;100819.09;5110578;27;20043;-27
2022/04/09 05:46:32;;;;;;;9.60;1.52;;;;;;;5.81;100.00;100822.97;5109045;28;20436;-26
2022/04/09 05:49:07;;;;;;;8.38;1.40;;;;;;;5.87;100.00;100825.53;5109803;28;20070;-29
2022/04/09 05:51:37;;;;;;;12.27;2.22;;;;;;;5.97;100.00;100827.56;5109215;28;20047;-27
2022/04/09 05:54:06;;;;;;;8.70;1.45;;;;;;;6.04;100.00;100825.34;5109084;28;20073;-28
2022/04/09 05:56:37;;;;;;;6.45;1.05;;;;;;;6.01;100.00;100836.97;5109735;28;20044;-29
2022/04/09 05:59:05;;;;;;;7.70;1.30;;;;;;;5.96;100.00;100834.19;5108939;28;20067;-29
2022/04/09 06:01:50;;;;;;;9.65;1.30;;;;;;;5.94;100.00;100841.09;5107191;28;20043;-34
2022/04/09 06:04:20;;;;;;;8.75;1.40;;;;;;;5.94;100.00;100841.09;5109566;28;20090;-25
2022/04/09 06:06:50;;;;;;;15.48;1.73;;;;;;;5.97;100.00;100843.34;5105333;28;20159;-25
2022/04/09 06:09:24;;;;;;;9.77;1.20;;;;;;;6.02;100.00;100857.19;5109362;28;20089;-25
2022/04/09 06:12:01;;;;;;;12.35;1.73;;;;;;;6.06;100.00;100855.56;5109508;28;20506;-26
2022/04/09 06:14:43;;;;;;;14.55;2.80;;;;;;;6.10;100.00;100859.47;5108418;28;20137;-33
2022/04/09 06:17:12;;;;;;;11.02;2.13;;;;;;;6.18;100.00;100865.34;5108019;28;20044;-24
2022/04/09 06:19:40;;;;;;;10.88;1.65;;;;;;;6.32;100.00;100860.13;5109853;28;20043;-28
2022/04/09 06:22:09;;;;;;;14.25;1.92;;;;;;;6.45;100.00;100873.47;5108549;28;20058;-30
2022/04/09 06:24:37;;;;;;;13.30;2.47;;;;;;;6.62;100.00;100869.63;5111481;28;20479;-27
2022/04/09 06:27:05;;;;;;;7.75;1.45;;;;;;;6.69;100.00;100872.97;5109586;28;20063;-27
2022/04/09 06:29:36;;;;;;;11.43;1.58;;;;;;;6.71;100.00;100870.78;5108987;28;20044;-25
2022/04/09 06:32:05;;;;;;;10.68;1.42;;;;;;;6.69;100.00;100879.38;5110099;28;20412;-27
2022/04/09 06:34:35;;;;;;;9.77;1.50;;;;;;;6.65;100.00;100889.31;5109152;28;20055;-26
2022/04/09 06:37:08;;;;;;;11.30;1.50;;;;;;;6.64;100.00;100898.75;5109788;28;20531;-32
2022/04/09 06:39:37;;;;;;;14.15;1.80;;;;;;;6.61;100.00;100892.91;5107768;28;20144;-32
2022/04/09 06:42:06;;;;;;;12.38;1.83;;;;;;;6.55;100.00;100890.16;5109258;28;20047;-28
2022/04/09 06:44:52;;;;;;;12.10;2.00;;;;;;;6.48;100.00;100905.34;5110274;28;20069;-25
2022/04/09 06:47:20;;;;;;;7.63;1.33;;;;;;;6.44;100.00;100904.22;5109853;28;20075;-29
2022/04/09 06:50:00;;;;;;;12.18;2.40;;;;;;;6.41;100.00;100913.91;5109313;28;20087;-29
2022/04/09 06:52:31;;;;;;;11.90;1.80;;;;;;;6.41;100.00;100902.81;5109545;28;20105;-29
2022/04/09 06:55:05;;;;;;;11.95;1.50;;;;;;;6.45;100.00;100917.81;5109211;28;20043;-29
2022/04/09 06:57:35;;;;;;;10.88;1.50;;;;;;;6.59;100.00;100925.66;5109297;28;20104;-27
2022/04/09 07:00:06;;;;;;;13.77;1.88;;;;;;;6.86;100.00;100934.59;5109641;28;20492;-26
2022/04/09 07:02:37;;;;;;;10.63;1.50;;;;;;;7.03;100.00;100935.19;5101237;28;20492;-28
2022/04/09 07:05:07;;;;;;;12.90;1.73;;;;;;;7.04;100.00;100947.13;5110439;28;20493;-28
2022/04/09 07:07:35;;;;;;;10.73;1.70;;;;;;;7.18;100.00;100945.50;5111175;28;20047;-26
2022/04/09 07:10:06;;;;;;;8.38;1.42;;;;;;;7.55;100.00;100954.44;5110368;28;20047;-27
2022/04/09 07:12:34;;;;;;;10.80;1.15;;;;;;;7.70;100.00;100952.78;5110035;28;20500;-26
2022/04/09 07:15:03;;;;;;;6.40;1.10;;;;;;;7.74;98.99;100940.84;5110454;28;20054;-26
2022/04/09 07:17:31;;;;;;;7.10;1.38;;;;;;;7.84;99.00;100951.91;5110079;28;20071;-31
2022/04/09 07:19:59;;;;;;;5.72;1.00;;;;;;;8.23;100.00;100959.66;5109928;28;20052;-30
2022/04/09 07:22:29;;;;;;;5.75;1.15;;;;;;;8.91;98.92;100955.28;5110471;28;20058;-31
2022/04/09 07:24:56;;;;;;;8.60;1.30;;;;;;;9.57;96.26;100966.00;5109647;28;20119;-27
2022/04/09 07:27:35;;;;;;;11.55;1.38;;;;;;;10.25;94.95;100967.94;5110231;28;20404;-25
2022/04/09 07:30:04;;;;;;;5.60;1.52;;;;;;;10.81;90.19;100956.13;5098589;28;20044;-26
2022/04/09 07:32:31;;;;;;;8.57;1.58;;;;;;;11.33;88.47;100961.56;5110465;28;20066;-30
2022/04/09 07:34:59;;;;;;;10.05;1.52;;;;;;;12.00;87.70;100962.19;5110471;28;20043;-26
2022/04/09 07:37:28;;;;;;;10.23;1.80;;;;;;;12.49;81.60;100971.94;5110259;28;20051;-35
2022/04/09 07:39:56;;;;;;;8.38;1.67;;;;;;;12.25;78.42;100974.06;5107000;28;20109;-34
2022/04/09 07:42:24;;;;;;;8.75;1.60;;;;;;;11.86;78.66;100977.25;5110266;28;20412;-29
2022/04/09 07:44:52;;;;;;;10.82;1.75;;;;;;;11.56;78.79;100984.16;5109099;28;20050;-30
2022/04/09 07:47:20;;;;;;;7.43;1.30;;;;;;;11.20;78.80;100992.19;5106955;28;20044;-26
2022/04/09 07:49:49;;;;;;;9.40;1.40;;;;;;;11.16;80.93;100992.00;5110483;28;20044;-26
2022/04/09 07:52:16;;;;;;;9.45;2.08;;;;;;;11.49;80.68;100983.69;5109833;28;20492;-26
2022/04/09 07:54:46;;;;;;;10.43;1.60;;;;;;;11.54;78.87;100997.59;5113030;28;20385;-30
2022/04/09 07:57:13;;;;;;;9.95;1.73;;;;;;;11.17;77.18;101002.03;5112349;28;20055;-32
2022/04/09 07:59:41;;;;;;;7.32;1.42;;;;;;;10.60;77.91;101031.72;5113544;28;20043;-31
2022/04/09 08:02:09;;;;;;;3.95;0.60;;;;;;;10.01;79.70;101038.38;5114334;28;20144;-28
2022/04/09 08:04:36;;;;;;;7.40;1.00;;;;;;;9.46;82.44;101034.03;5113893;28;20067;-26
2022/04/09 08:07:04;;;;;;;4.65;0.95;;;;;;;9.04;85.59;101039.25;5113333;28;20457;-29
2022/04/09 08:09:32;;;;;;;5.43;0.68;;;;;;;8.61;87.77;101034.09;5113605;28;20075;-33
2022/04/09 08:12:01;;;;;;;5.68;0.98;;;;;;;8.28;89.37;101032.75;5114027;28;20477;-30
2022/04/09 08:14:31;;;;;;;5.60;0.95;;;;;;;8.04;91.49;101030.81;5113028;28;20047;-30
2022/04/09 08:16:59;;;;;;;5.55;0.90;;;;;;;7.92;93.01;101040.28;5112369;28;20057;-27
2022/04/09 08:19:27;;;;;;;6.07;1.10;;;;;;;8.13;96.30;101035.56;5113427;28;20054;-33
2022/04/09 08:21:56;;;;;;;6.68;1.20;;;;;;;8.85;99.42;101037.09;5113491;28;20715;-31
2022/04/09 08:24:24;;;;;;;5.80;1.15;;;;;;;9.81;98.98;101054.41;5113649;27;20059;-30
2022/04/09 08:26:51;;;;;;;4.85;1.00;;;;;;;10.67;95.47;101054.53;5113251;28;20040;-30
2022/04/09 08:29:20;;;;;;;6.65;0.90;;;;;;;11.07;90.76;101051.59;5113302;28;20517;-30
2022/04/09 08:31:48;;;;;;;6.82;1.00;;;;;;;11.38;89.78;101061.25;5113454;28;20059;-31
2022/04/09 08:34:18;;;;;;;6.90;0.95;;;;;;;11.27;84.83;101068.91;5113063;28;20297;-33
2022/04/09 08:36:46;;;;;;;6.78;1.10;;;;;;;10.82;84.29;101075.88;5113151;28;20097;-31
2022/04/09 08:39:14;;;;;;;5.95;0.98;;;;;;;10.38;83.85;101073.25;5113463;28;20496;-27
2022/04/09 08:41:44;;;;;;;5.00;0.80;;;;;;;9.95;84.63;101078.59;5112886;28;20040;-35
2022/04/09 08:44:13;;;;;;;4.20;0.80;;;;;;;9.57;85.73;101068.25;5110431;28;20050;-27
2022/04/09 08:46:42;;;;;;;7.43;1.23;;;;;;;9.30;86.94;101072.28;5112172;28;20047;-31
2022/04/09 08:49:10;;;;;;;7.13;1.25;;;;;;;9.23;89.84;101080.09;5111906;28;20162;-32
2022/04/09 08:51:38;;;;;;;8.00;1.50;;;;;;;9.45;91.83;101082.50;5113333;28;20348;-25
2022/04/09 08:54:06;;;;;;;6.05;1.08;;;;;;;9.56;92.13;101089.72;5113446;28;20092;-26
2022/04/09 08:56:37;;;;;;;6.93;1.00;;;;;;;9.91;94.53;101096.19;5112557;28;20050;-33
2022/04/09 08:59:06;;;;;;;8.63;1.13;;;;;;;10.41;94.42;101097.75;5112784;28;20069;-31
2022/04/09 09:01:34;;;;;;;9.57;1.30;;;;;;;10.97;94.13;101108.41;5105079;28;20059;-25
2022/04/09 09:04:03;;;;;;;6.20;1.10;;;;;;;11.70;92.08;101105.25;5112569;28;20055;-32
2022/04/09 09:06:32;;;;;;;4.80;0.90;;;;;;;12.34;89.22;101107.38;5111710;28;20068;-30
2022/04/09 09:09:01;;;;;;;7.65;1.27;;;;;;;12.91;85.95;101102.44;5112274;28;20055;-23
2022/04/09 09:11:30;;;;;;;3.65;0.80;;;;;;;13.49;83.65;101104.66;5112717;28;20043;-28
2022/04/09 09:14:00;;;;;;;5.43;0.70;;;;;;;14.08;79.93;101108.38;5112657;28;20118;-30
2022/04/09 09:16:30;;;;;;;5.47;0.82;;;;;;;14.51;76.94;101107.94;5112071;28;20039;-25
2022/04/09 09:19:00;;;;;;;3.92;0.88;;;;;;;14.71;73.13;101099.81;5112487;28;20070;-26
2022/04/09 09:21:29;;;;;;;4.63;0.90;;;;;;;14.49;71.56;101108.25;5112884;28;20054;-32
2022/04/09 09:24:13;;;;;;;6.38;1.30;;;;;;;14.20;68.67;101117.06;5111425;27;20039;-31
2022/04/09 09:26:41;;;;;;;7.45;1.23;;;;;;;13.39;70.13;101135.69;5112381;28;20143;-27
2022/04/09 09:29:11;;;;;;;6.47;0.90;;;;;;;12.54;71.89;101127.75;5112580;28;20043;-31
2022/04/09 09:31:41;;;;;;;5.47;1.13;;;;;;;11.84;74.09;101139.75;5112071;28;20048;-28
2022/04/09 09:34:11;;;;;;;5.82;0.80;;;;;;;11.54;77.18;101137.34;5101356;28;20126;-27
2022/04/09 09:36:42;;;;;;;3.75;0.70;;;;;;;11.70;78.68;101136.81;5111871;28;20043;-28
2022/04/09 09:39:11;;;;;;;5.18;0.77;;;;;;;12.04;78.94;101147.84;5111987;27;20065;-30
2022/04/09 09:41:48;;;;;;;4.57;1.00;;;;;;;12.16;74.87;101135.38;5112406;28;20054;-27
2022/04/09 09:44:17;;;;;;;4.80;1.20;;;;;;;12.08;75.21;101148.91;5110944;28;20035;-26
2022/04/09 09:46:46;;;;;;;5.63;1.75;;;;;;;12.20;74.27;101142.00;5101036;28;20059;-27
2022/04/09 09:49:14;;;;;;;9.35;1.20;;;;;;;12.53;74.97;101146.53;5108729;28;20044;-31
2022/04/09 09:51:44;;;;;;;7.38;1.00;;;;;;;12.89;74.55;101157.94;5111861;28;20065;-28
2022/04/09 09:54:13;;;;;;;8.57;1.30;;;;;;;13.22;73.11;101163.50;5111508;28;20036;-24
2022/04/09 09:56:43;;;;;;;6.85;1.10;;;;;;;13.55;72.32;101150.25;5107798;28;20059;-31
2022/04/09 09:59:12;;;;;;;3.40;0.70;;;;;;;13.70;70.79;101159.19;5110958;28;20062;-29
2022/04/09 10:01:41;;;;;;;7.97;1.10;;;;;;;13.98;70.34;101157.19;5110891;28;20039;-25
2022/04/09 10:04:12;;;;;;;7.05;0.95;;;;;;;14.22;68.25;101161.66;5111581;28;20047;-31
2022/04/09 10:06:42;;;;;;;2.95;0.68;;;;;;;14.03;65.93;101159.00;5111133;28;20050;-27
2022/04/09 10:09:14;;;;;;;3.05;0.43;;;;;;;13.68;64.77;101164.25;5111794;28;20063;-28
2022/04/09 10:11:47;;;;;;;3.03;0.60;;;;;;;13.32;64.17;101168.94;5109915;28;20055;-29
2022/04/09 10:14:17;;;;;;;5.80;0.75;;;;;;;13.19;65.58;101175.38;5111296;28;20044;-35
2022/04/09 10:16:45;;;;;;;4.78;0.70;;;;;;;13.41;66.83;101176.31;5110340;28;20047;-36
2022/04/09 10:19:17;;;;;;;5.38;0.57;;;;;;;13.77;65.99;101178.41;5110539;28;20362;-29
2022/04/09 10:21:46;;;;;;;2.55;0.50;;;;;;;14.19;65.18;101171.53;5111373;28;20044;-29
2022/04/09 10:24:18;;;;;;;2.10;0.40;;;;;;;14.68;63.45;101187.53;5111083;28;20035;-26
2022/04/09 10:26:46;;;;;;;;;;;;;;;14.91;57.69;101184.72;5111367;28;20047;-38
2022/04/09 10:29:14;;;;;;;5.05;0.80;;;;;;;15.01;62.00;101190.06;5110943;28;19919;-27
2022/04/09 10:31:43;;;;;;;3.00;0.80;;;;;;;15.25;61.94;101193.34;5111531;28;20051;-29
2022/04/09 10:34:11;;;;;;;3.05;0.60;;;;;;;15.51;60.35;101199.13;5110727;28;20066;-30
2022/04/09 10:37:03;;;;;;;4.60;0.90;;;;;;;15.58;58.44;101204.31;5110395;28;20521;-27
2022/04/09 10:39:46;;;;;;;4.50;0.93;;;;;;;15.49;56.45;101196.63;5110573;28;20063;-27
2022/04/09 10:42:54;;;;;;;5.78;0.90;;;;;;;15.25;56.44;101200.97;5111026;28;20485;-32
2022/04/09 10:45:22;;;;;;;6.45;1.23;;;;;;;15.20;59.95;101198.28;5103395;28;20418;-30
2022/04/09 10:48:08;;;;;;;4.63;1.10;;;;;;;15.14;56.39;101208.84;5110465;28;20052;-27
2022/04/09 10:50:57;;;;;;;5.10;0.80;;;;;;;14.55;55.41;101210.06;5111322;28;20039;-27
2022/04/09 10:53:27;;;;;;;4.95;0.80;;;;;;;14.03;59.22;101207.53;5111305;28;20126;-31
2022/04/09 10:56:13;;;;;;;5.32;0.93;;;;;;;13.58;59.53;101219.75;5110138;28;20047;-26
2022/04/09 10:59:10;;;;;;;4.88;1.00;;;;;;;13.02;58.68;101223.53;5110205;28;20062;-33
2022/04/09 11:01:51;;;;;;;4.70;0.90;;;;;;;12.56;61.74;101223.47;5107010;28;20052;-31
2022/04/09 11:04:41;;;;;;;8.83;1.07;;;;;;;12.55;64.13;101225.44;5110560;28;20039;-28
2022/04/09 11:07:15;;;;;;;6.63;1.20;;;;;;;12.84;65.68;101230.84;5110071;28;20392;-25
2022/04/09 11:10:01;;;;;;;9.40;1.30;;;;;;;13.02;65.33;101232.75;5110297;28;20040;-28
2022/04/09 11:12:32;;;;;;;7.25;1.40;;;;;;;12.89;65.15;101222.34;5099977;28;20228;-27
2022/04/09 11:15:01;;;;;;;6.82;1.30;;;;;;;13.02;66.23;101226.34;5110135;28;20042;-25
2022/04/09 11:17:31;;;;;;;7.95;1.45;;;;;;;13.36;65.90;101232.50;5110343;28;20617;-25
2022/04/09 11:20:05;;;;;;;8.70;1.52;;;;;;;13.65;65.58;101222.94;5111153;28;20066;-27
2022/04/09 11:22:34;;;;;;;7.57;1.20;;;;;;;14.00;65.33;101241.00;5110226;28;20047;-30
2022/04/09 11:25:04;;;;;;;8.02;1.08;;;;;;;14.17;63.23;101229.16;5099135;28;20054;-27
2022/04/09 11:27:33;;;;;;;6.30;1.30;;;;;;;14.22;61.96;101246.69;5107556;28;20052;-26
2022/04/09 11:30:01;;;;;;;11.23;2.00;;;;;;;13.71;62.39;101267.41;5113537;28;20075;-28
2022/04/09 11:32:29;;;;;;;9.05;1.88;;;;;;;12.76;64.44;101263.19;5114547;28;20051;-27
2022/04/09 11:34:59;;;;;;;8.55;1.42;;;;;;;12.00;67.90;101264.25;5110058;28;20427;-28
2022/04/09 11:37:29;;;;;;;6.10;0.98;;;;;;;11.48;70.60;101267.06;5113911;28;20503;-29